Antonito, Colorado
Current Conditions -  °F | °C
As of 3:52 AM on Sunday 23 Nov 2014 (Local Time) from KALS Reporting Station
Few Clouds Few Clouds  
Wind Chill:   Ceiling: Unl
Heat Index: 17°   Visibility: 10mi
Dew Point: 13°   Wind: 8mph
Humidity: 84%   Direction: 20°NNE
Pressure: 29.7"   Gusts: NA
Location:  37.08°N, 106.01°W
Report Text: KALS 231052Z AUTO 02007KT 10SM FEW070 M08/M11 A2970 RMK AO2 SLP047 T10831106
Loading
Personal Weather Stations






























Interactive Weather Map New forecast layout! Learn more

10-Day Weather Forecast

Advertisements
Track Severe Weather on mobile